createdAt,value
2023-04-09T00:01:11.843Z,36.50
2023-04-09T00:03:39.476Z,37.45
2023-04-09T00:06:06.760Z,35.92
2023-04-09T00:08:33.898Z,34.83
2023-04-09T00:11:00.868Z,37.47
2023-04-09T00:13:37.953Z,37.60
2023-04-09T00:16:07.496Z,37.97
2023-04-09T00:18:34.614Z,35.90
2023-04-09T00:21:01.646Z,36.90
2023-04-09T00:23:28.770Z,36.35
2023-04-09T00:25:56.140Z,37.88
2023-04-09T00:28:23.204Z,38.25
2023-04-09T00:30:50.350Z,38.45
2023-04-09T00:33:17.470Z,36.85
2023-04-09T00:35:44.783Z,35.50
2023-04-09T00:38:11.797Z,35.45
2023-04-09T00:40:39.036Z,36.15
2023-04-09T00:43:06.937Z,35.25
2023-04-09T00:45:34.184Z,36.08
2023-04-09T00:48:01.680Z,34.50
2023-04-09T00:50:29.178Z,34.50
2023-04-09T00:52:56.423Z,32.47
2023-04-09T00:55:23.601Z,32.13
2023-04-09T00:57:50.803Z,32.67
2023-04-09T01:00:17.980Z,32.35
2023-04-09T01:02:46.041Z,32.10
2023-04-09T01:05:13.928Z,32.08
2023-04-09T01:07:46.600Z,33.83
2023-04-09T01:10:47.055Z,30.95
2023-04-09T01:13:33.446Z,30.45
2023-04-09T01:16:03.234Z,29.45
2023-04-09T01:18:43.026Z,30.25
2023-04-09T01:21:26.420Z,30.67
2023-04-09T01:24:21.398Z,30.45
2023-04-09T01:27:07.229Z,31.25
2023-04-09T01:29:42.010Z,30.00
2023-04-09T01:32:11.195Z,28.55
2023-04-09T01:34:39.225Z,28.05
2023-04-09T01:37:07.921Z,30.77
2023-04-09T01:39:37.633Z,30.77
2023-04-09T01:42:09.607Z,30.77
2023-04-09T01:44:40.357Z,30.98
2023-04-09T01:47:09.427Z,30.17
2023-04-09T01:49:38.446Z,30.63
2023-04-09T01:52:05.967Z,30.58
2023-04-09T01:54:33.103Z,37.67
2023-04-09T01:57:00.257Z,38.10
2023-04-09T01:59:27.315Z,39.22
2023-04-09T02:02:01.404Z,39.22
2023-04-09T02:04:37.444Z,30.88
2023-04-09T02:07:30.758Z,33.75
2023-04-09T02:09:59.621Z,31.30
2023-04-09T02:12:31.685Z,29.65
2023-04-09T02:15:01.100Z,30.17
2023-04-09T02:17:28.403Z,31.15
2023-04-09T02:19:55.480Z,30.65
2023-04-09T02:22:22.635Z,30.23
2023-04-09T02:24:49.629Z,28.65
2023-04-09T02:27:16.701Z,31.75
2023-04-09T02:29:44.039Z,31.13
2023-04-09T02:32:11.202Z,29.63
2023-04-09T02:34:38.249Z,32.15
2023-04-09T02:37:05.611Z,29.90
2023-04-09T02:39:32.775Z,30.25
2023-04-09T02:41:59.785Z,31.20
2023-04-09T02:44:26.872Z,31.02
2023-04-09T02:46:53.968Z,31.85
2023-04-09T02:49:20.942Z,30.55
2023-04-09T02:51:48.103Z,31.77
2023-04-09T02:54:15.490Z,30.35
2023-04-09T02:56:42.493Z,30.67
2023-04-09T02:59:09.495Z,31.48
2023-04-09T03:01:36.622Z,31.25
2023-04-09T03:04:03.894Z,30.48
2023-04-09T03:06:31.171Z,32.20
2023-04-09T03:08:58.286Z,31.75
2023-04-09T03:11:25.253Z,32.38
2023-04-09T03:13:52.273Z,33.05
2023-04-09T03:16:20.993Z,33.40
2023-04-09T03:18:48.003Z,32.78
2023-04-09T03:21:15.195Z,31.88
2023-04-09T03:23:42.293Z,34.13
2023-04-09T03:26:10.639Z,33.95
2023-04-09T03:28:37.689Z,33.13
2023-04-09T03:31:04.808Z,33.63
2023-04-09T03:33:31.824Z,33.63
2023-04-09T03:35:58.897Z,32.65
2023-04-09T03:38:26.396Z,32.05
2023-04-09T03:40:53.424Z,32.77
2023-04-09T03:43:20.620Z,30.00
2023-04-09T03:45:47.694Z,32.57
2023-04-09T03:48:14.666Z,33.40
2023-04-09T03:50:42.392Z,32.23
2023-04-09T03:53:09.546Z,33.10
2023-04-09T03:55:38.142Z,32.13
2023-04-09T03:58:05.399Z,32.30
2023-04-09T04:00:32.436Z,33.00
2023-04-09T04:02:59.747Z,32.30
2023-04-09T04:05:26.974Z,31.93
2023-04-09T04:07:54.085Z,33.30
2023-04-09T04:10:21.343Z,31.87
2023-04-09T04:12:48.561Z,32.97
2023-04-09T04:15:15.629Z,30.67
2023-04-09T04:17:42.741Z,31.30
2023-04-09T04:20:10.489Z,31.53
2023-04-09T04:22:37.594Z,31.97
2023-04-09T04:25:05.597Z,31.57
2023-04-09T04:27:33.024Z,30.77
2023-04-09T04:30:02.254Z,30.33
2023-04-09T04:32:29.530Z,31.03
2023-04-09T04:34:56.729Z,29.23
2023-04-09T04:37:23.916Z,30.67
2023-04-09T04:39:51.068Z,29.93
2023-04-09T04:42:18.324Z,30.80
2023-04-09T04:44:45.659Z,30.23
2023-04-09T04:47:12.986Z,30.43
2023-04-09T04:49:40.187Z,30.70
2023-04-09T04:52:07.799Z,28.90
2023-04-09T04:54:34.899Z,29.23
2023-04-09T04:57:02.246Z,29.20
2023-04-09T04:59:30.026Z,30.47
2023-04-09T05:01:57.290Z,28.70
2023-04-09T05:04:24.509Z,29.27
2023-04-09T05:06:51.551Z,29.07
2023-04-09T05:09:19.500Z,28.77
2023-04-09T05:11:48.294Z,30.77
2023-04-09T05:14:15.413Z,29.40
2023-04-09T05:16:42.628Z,29.00
2023-04-09T05:19:09.862Z,28.30
2023-04-09T05:21:36.877Z,28.83
2023-04-09T05:24:04.391Z,29.73
2023-04-09T05:26:31.591Z,28.60
2023-04-09T05:28:58.594Z,27.83
2023-04-09T05:31:25.757Z,28.03
2023-04-09T05:33:53.124Z,27.60
2023-04-09T05:36:20.464Z,27.63
2023-04-09T05:38:47.933Z,28.43
2023-04-09T05:41:15.148Z,28.23
2023-04-09T05:43:43.091Z,28.57
2023-04-09T05:46:10.343Z,27.77
2023-04-09T05:48:37.603Z,28.37
2023-04-09T05:51:04.706Z,27.97
2023-04-09T05:53:32.460Z,28.43
2023-04-09T05:55:59.633Z,27.53
2023-04-09T05:58:28.841Z,26.87
2023-04-09T06:00:56.187Z,26.40
2023-04-09T06:03:23.364Z,27.03
2023-04-09T06:05:50.480Z,26.97
2023-04-09T06:08:17.686Z,27.23
2023-04-09T06:10:44.912Z,26.07
2023-04-09T06:13:11.906Z,26.17
2023-04-09T06:15:39.554Z,26.13
2023-04-09T06:18:06.860Z,27.50
2023-04-09T06:20:34.061Z,27.30
2023-04-09T06:23:01.095Z,26.17
2023-04-09T06:25:28.430Z,26.27
2023-04-09T06:27:55.726Z,25.67
2023-04-09T06:30:23.086Z,26.90
2023-04-09T06:32:55.152Z,27.27
2023-04-09T06:35:23.459Z,27.00
2023-04-09T06:37:50.456Z,26.43
2023-04-09T06:40:18.146Z,25.97
2023-04-09T06:42:46.423Z,25.30
2023-04-09T06:45:13.421Z,26.50
2023-04-09T06:47:41.086Z,25.48
2023-04-09T06:50:09.882Z,25.70
2023-04-09T06:52:36.948Z,25.80
2023-04-09T06:55:04.621Z,26.02
2023-04-09T06:57:31.944Z,25.63
2023-04-09T06:59:58.968Z,27.30
2023-04-09T07:02:27.932Z,27.55
2023-04-09T07:04:55.540Z,26.40
2023-04-09T07:07:24.285Z,27.25
2023-04-09T07:09:53.653Z,27.60
2023-04-09T07:12:35.337Z,27.02
2023-04-09T07:15:05.134Z,24.92
2023-04-09T07:17:32.772Z,25.98
2023-04-09T07:19:59.800Z,26.77
2023-04-09T07:22:29.066Z,27.13
2023-04-09T07:24:56.717Z,25.90
2023-04-09T07:27:27.650Z,26.75
2023-04-09T07:29:59.499Z,28.45
2023-04-09T07:32:31.096Z,28.27
2023-04-09T07:34:59.613Z,26.92
2023-04-09T07:37:27.310Z,26.70
2023-04-09T07:39:54.887Z,28.60
2023-04-09T07:42:22.065Z,27.73
2023-04-09T07:44:49.189Z,28.33
2023-04-09T07:47:16.248Z,27.15
2023-04-09T07:49:43.760Z,27.65
2023-04-09T07:52:10.831Z,28.65
2023-04-09T07:54:37.861Z,27.58
2023-04-09T07:57:04.898Z,27.48
2023-04-09T07:59:32.344Z,26.73
2023-04-09T08:01:59.934Z,26.92
2023-04-09T08:04:28.297Z,28.55
2023-04-09T08:06:55.615Z,27.10
2023-04-09T08:09:23.149Z,27.85
2023-04-09T08:11:50.466Z,28.33
2023-04-09T08:14:18.529Z,29.88
2023-04-09T08:16:47.889Z,28.48
2023-04-09T08:19:17.256Z,29.48
2023-04-09T08:21:45.004Z,29.08
2023-04-09T08:24:12.755Z,30.73
2023-04-09T08:26:41.621Z,28.83
2023-04-09T08:29:13.144Z,29.88
2023-04-09T08:31:40.452Z,29.27
2023-04-09T08:34:09.145Z,29.75
2023-04-09T08:36:36.230Z,29.90
2023-04-09T08:39:04.246Z,29.40
2023-04-09T08:41:31.425Z,28.63
2023-04-09T08:43:59.931Z,29.13
2023-04-09T08:46:28.168Z,29.13
2023-04-09T08:48:55.600Z,28.65
2023-04-09T08:51:24.389Z,28.17
2023-04-09T08:54:04.410Z,26.70
2023-04-09T08:56:32.255Z,26.63
2023-04-09T08:58:59.396Z,28.60
2023-04-09T09:01:32.748Z,27.85
2023-04-09T09:04:04.325Z,26.63
2023-04-09T09:06:38.178Z,27.73
2023-04-09T09:09:16.699Z,27.25
2023-04-09T09:11:46.126Z,28.63
2023-04-09T09:14:19.331Z,27.88
2023-04-09T09:16:58.673Z,27.73
2023-04-09T09:19:25.762Z,29.33
2023-04-09T09:22:03.825Z,28.10
2023-04-09T09:24:34.690Z,26.48
2023-04-09T09:27:02.795Z,27.55
2023-04-09T09:29:30.191Z,26.67
2023-04-09T09:31:57.252Z,26.38
2023-04-09T09:34:26.155Z,25.55
2023-04-09T09:36:53.332Z,25.40
2023-04-09T09:39:22.020Z,27.27
2023-04-09T09:42:06.584Z,25.95
2023-04-09T09:44:33.956Z,25.15
2023-04-09T09:47:03.702Z,25.55
2023-04-09T09:49:31.074Z,26.13
2023-04-09T09:52:02.990Z,24.25
2023-04-09T09:54:43.729Z,22.73
2023-04-09T09:57:13.868Z,22.58
2023-04-09T10:00:02.788Z,23.05
2023-04-09T10:02:37.345Z,21.27
2023-04-09T10:05:08.807Z,21.45
2023-04-09T10:07:37.663Z,19.95
2023-04-09T10:10:07.358Z,19.92
2023-04-09T10:12:34.998Z,20.10
2023-04-09T10:15:04.993Z,18.85
2023-04-09T10:17:32.704Z,18.88
2023-04-09T10:20:32.840Z,19.67
2023-04-09T10:23:09.812Z,17.52
2023-04-09T10:25:36.893Z,16.83
2023-04-09T10:28:17.607Z,17.45
2023-04-09T10:30:45.286Z,19.20
2023-04-09T10:33:22.034Z,21.70
2023-04-09T10:35:49.321Z,22.70
2023-04-09T10:38:16.448Z,22.15
2023-04-09T10:40:51.522Z,19.80
2023-04-09T10:43:21.273Z,19.83
2023-04-09T10:45:53.797Z,20.45
2023-04-09T10:48:22.121Z,16.27
2023-04-09T10:50:54.391Z,17.75
2023-04-09T10:53:25.982Z,15.38
2023-04-09T10:55:54.759Z,15.55
2023-04-09T10:58:21.882Z,13.82
2023-04-09T11:00:51.014Z,12.48
2023-04-09T11:03:33.137Z,11.82
2023-04-09T11:06:10.609Z,10.57
2023-04-09T11:08:38.900Z,9.98
2023-04-09T11:11:06.322Z,9.23
2023-04-09T11:13:34.568Z,8.75
2023-04-09T11:16:04.132Z,8.02
2023-04-09T11:18:34.260Z,7.60
2023-04-09T11:21:06.841Z,8.38
2023-04-09T11:23:34.825Z,8.80
2023-04-09T11:26:02.431Z,9.10
2023-04-09T11:28:29.531Z,8.25
2023-04-09T11:30:56.512Z,8.60
2023-04-09T11:33:23.568Z,8.68
2023-04-09T11:35:51.686Z,9.98
2023-04-09T11:38:18.831Z,9.20
2023-04-09T11:40:49.416Z,10.07
2023-04-09T11:43:17.878Z,9.90
2023-04-09T11:45:48.536Z,11.35
2023-04-09T11:48:21.762Z,11.65
2023-04-09T11:50:49.097Z,11.05
2023-04-09T11:53:21.036Z,10.88
2023-04-09T11:55:54.048Z,11.75
2023-04-09T11:58:26.292Z,12.32
2023-04-09T12:00:56.201Z,11.73
2023-04-09T12:03:33.315Z,11.55
2023-04-09T12:06:02.750Z,11.55
2023-04-09T12:08:31.257Z,11.93
2023-04-09T12:11:16.128Z,12.18
2023-04-09T12:13:46.611Z,12.05
2023-04-09T12:16:15.038Z,11.40
2023-04-09T12:18:42.367Z,11.27
2023-04-09T12:21:09.524Z,9.75
2023-04-09T12:23:36.636Z,9.63
2023-04-09T12:26:03.875Z,11.40
2023-04-09T12:28:31.300Z,11.38
2023-04-09T12:30:59.575Z,11.80
2023-04-09T12:33:27.245Z,10.70
2023-04-09T12:35:54.414Z,9.43
2023-04-09T12:38:21.547Z,9.25
2023-04-09T12:40:48.598Z,10.25
2023-04-09T12:43:15.941Z,9.52
2023-04-09T12:45:43.118Z,9.30
2023-04-09T12:48:10.441Z,9.80
2023-04-09T12:50:39.631Z,10.23
2023-04-09T12:53:06.658Z,9.98
2023-04-09T12:55:34.004Z,9.05
2023-04-09T12:58:02.644Z,9.15
2023-04-09T13:00:31.306Z,9.57
2023-04-09T13:02:58.558Z,8.88
2023-04-09T13:05:26.273Z,8.95
2023-04-09T13:07:53.829Z,8.70
2023-04-09T13:10:21.185Z,8.38
2023-04-09T13:12:48.267Z,8.60
2023-04-09T13:15:15.662Z,9.38
2023-04-09T13:17:42.946Z,8.98
2023-04-09T13:20:10.355Z,8.40
2023-04-09T13:22:37.536Z,9.40
2023-04-09T13:25:05.881Z,8.82
2023-04-09T13:27:33.015Z,8.65
2023-04-09T13:30:00.079Z,8.48
2023-04-09T13:32:27.219Z,8.30
2023-04-09T13:34:55.664Z,8.57
2023-04-09T13:37:22.784Z,7.95
2023-04-09T13:39:51.396Z,8.68
2023-04-09T13:42:19.705Z,7.78
2023-04-09T13:44:46.864Z,7.93
2023-04-09T13:47:16.405Z,7.72
2023-04-09T13:49:43.928Z,7.70
2023-04-09T13:52:11.822Z,8.05
2023-04-09T13:54:38.859Z,7.70
2023-04-09T13:57:05.934Z,7.07
2023-04-09T13:59:33.059Z,7.32
2023-04-09T14:02:00.493Z,7.75
2023-04-09T14:04:27.682Z,7.70
2023-04-09T14:06:54.827Z,7.80
2023-04-09T14:09:21.848Z,7.43
2023-04-09T14:11:49.578Z,7.18
2023-04-09T14:14:18.146Z,7.97
2023-04-09T14:16:45.081Z,7.40
2023-04-09T14:19:12.391Z,7.93
2023-04-09T14:21:40.533Z,7.90
2023-04-09T14:24:07.870Z,6.95
2023-04-09T14:26:34.937Z,7.05
2023-04-09T14:29:02.183Z,7.40
2023-04-09T14:31:29.431Z,7.53
2023-04-09T14:33:57.031Z,7.70
2023-04-09T14:36:24.681Z,7.22
2023-04-09T14:38:52.564Z,7.10
2023-04-09T14:41:20.787Z,6.45
2023-04-09T14:43:47.962Z,7.65
2023-04-09T14:46:15.002Z,6.50
2023-04-09T14:48:41.986Z,6.60
2023-04-09T14:51:12.356Z,6.15
2023-04-09T14:53:39.554Z,6.25
2023-04-09T14:56:07.431Z,6.25
2023-04-09T14:58:34.418Z,6.65
2023-04-09T15:01:01.511Z,6.43
2023-04-09T15:03:28.769Z,5.78
2023-04-09T15:05:56.775Z,5.93
2023-04-09T15:08:23.861Z,6.68
2023-04-09T15:10:51.313Z,5.93
2023-04-09T15:13:18.464Z,5.88
2023-04-09T15:15:45.557Z,6.22
2023-04-09T15:18:12.771Z,6.05
2023-04-09T15:20:40.625Z,5.90
2023-04-09T15:23:07.648Z,5.38
2023-04-09T15:25:34.736Z,6.20
2023-04-09T15:28:03.304Z,5.75
2023-04-09T15:30:30.734Z,6.30
2023-04-09T15:32:57.997Z,5.82
2023-04-09T15:35:26.662Z,5.57
2023-04-09T15:37:53.961Z,5.75
2023-04-09T15:40:21.068Z,5.32
2023-04-09T15:42:48.134Z,5.25
2023-04-09T15:45:16.359Z,4.90
2023-04-09T15:47:47.329Z,5.22
2023-04-09T15:50:14.951Z,4.78
2023-04-09T15:52:42.008Z,5.15
2023-04-09T15:55:09.972Z,5.65
2023-04-09T15:57:38.726Z,5.13
2023-04-09T16:00:10.839Z,5.47
2023-04-09T16:02:39.162Z,5.13
2023-04-09T16:05:07.465Z,5.82
2023-04-09T16:07:34.547Z,5.07
2023-04-09T16:10:02.493Z,4.22
2023-04-09T16:12:29.459Z,5.50
2023-04-09T16:14:56.552Z,4.28
2023-04-09T16:17:24.007Z,4.40
2023-04-09T16:19:51.038Z,5.53
2023-04-09T16:22:18.272Z,4.95
2023-04-09T16:24:45.428Z,4.68
2023-04-09T16:27:13.663Z,4.78
2023-04-09T16:29:41.001Z,4.40
2023-04-09T16:32:08.283Z,4.75
2023-04-09T16:34:35.983Z,5.13
2023-04-09T16:37:03.114Z,4.15
2023-04-09T16:39:30.165Z,4.60
2023-04-09T16:41:58.383Z,5.20
2023-04-09T16:44:26.244Z,4.43
2023-04-09T16:46:53.342Z,5.13
2023-04-09T16:49:20.530Z,5.80
2023-04-09T16:51:47.946Z,5.20
2023-04-09T16:54:15.031Z,4.63
2023-04-09T16:56:42.476Z,5.50
2023-04-09T16:59:09.587Z,5.18
2023-04-09T17:01:36.676Z,4.13
2023-04-09T17:04:03.892Z,4.85
2023-04-09T17:06:31.032Z,5.50
2023-04-09T17:08:58.160Z,5.13
2023-04-09T17:11:25.494Z,4.28
2023-04-09T17:13:52.472Z,4.75
2023-04-09T17:16:19.574Z,4.53
2023-04-09T17:18:47.201Z,4.38
2023-04-09T17:21:14.236Z,4.28
2023-04-09T17:23:42.618Z,4.75
2023-04-09T17:26:09.639Z,4.93
2023-04-09T17:28:36.609Z,5.40
2023-04-09T17:31:03.861Z,5.07
2023-04-09T17:33:30.904Z,5.07
2023-04-09T17:35:58.034Z,5.55
2023-04-09T17:38:26.982Z,5.68
2023-04-09T17:40:54.171Z,5.38
2023-04-09T17:43:21.218Z,5.43
2023-04-09T17:45:49.243Z,5.30
2023-04-09T17:48:16.521Z,5.43
2023-04-09T17:50:43.803Z,4.97
2023-04-09T17:53:10.885Z,4.90
2023-04-09T17:55:37.985Z,5.00
2023-04-09T17:58:05.049Z,5.30
2023-04-09T18:00:34.388Z,6.28
2023-04-09T18:03:01.827Z,5.38
2023-04-09T18:05:29.273Z,5.90
2023-04-09T18:07:56.763Z,5.93
2023-04-09T18:10:23.977Z,5.43
2023-04-09T18:12:51.192Z,5.50
2023-04-09T18:15:19.209Z,6.25
2023-04-09T18:17:46.429Z,6.32
2023-04-09T18:20:15.433Z,6.63
2023-04-09T18:22:44.075Z,5.70
2023-04-09T18:25:11.628Z,5.78
2023-04-09T18:27:38.798Z,5.88
2023-04-09T18:30:07.217Z,4.82
2023-04-09T18:32:34.388Z,5.72
2023-04-09T18:35:01.720Z,5.95
2023-04-09T18:37:28.839Z,5.63
2023-04-09T18:39:55.912Z,5.20
2023-04-09T18:42:23.134Z,5.32
2023-04-09T18:44:50.166Z,5.35
2023-04-09T18:47:17.166Z,5.90
2023-04-09T18:49:44.178Z,6.15
2023-04-09T18:52:11.214Z,6.40
2023-04-09T18:54:39.078Z,6.35
2023-04-09T18:57:06.466Z,6.95
2023-04-09T18:59:35.186Z,5.85
2023-04-09T19:02:06.052Z,5.75
2023-04-09T19:04:40.086Z,5.75
2023-04-09T19:07:07.972Z,6.43
2023-04-09T19:09:37.182Z,5.38
2023-04-09T19:12:04.995Z,6.35
2023-04-09T19:14:32.162Z,6.38
2023-04-09T19:16:59.685Z,5.65
2023-04-09T19:19:28.465Z,5.57
2023-04-09T19:21:55.756Z,5.47
2023-04-09T19:24:23.776Z,6.15
2023-04-09T19:26:53.158Z,6.55
2023-04-09T19:29:20.378Z,6.28
2023-04-09T19:31:47.531Z,6.25
2023-04-09T19:34:15.851Z,5.63
2023-04-09T19:36:43.063Z,6.22
2023-04-09T19:39:11.277Z,6.03
2023-04-09T19:41:38.308Z,6.93
2023-04-09T19:44:07.415Z,6.57
2023-04-09T19:46:34.925Z,6.95
2023-04-09T19:49:02.268Z,7.70
2023-04-09T19:51:29.347Z,9.02
2023-04-09T19:53:56.774Z,9.30
2023-04-09T19:56:24.635Z,8.77
2023-04-09T19:58:52.312Z,9.23
2023-04-09T20:01:20.074Z,9.15
2023-04-09T20:03:48.240Z,9.40
2023-04-09T20:06:15.836Z,9.23
2023-04-09T20:08:42.970Z,9.82
2023-04-09T20:11:17.451Z,9.73
2023-04-09T20:13:44.527Z,9.30
2023-04-09T20:16:11.922Z,8.90
2023-04-09T20:18:38.961Z,9.40
2023-04-09T20:21:07.550Z,9.60
2023-04-09T20:23:34.737Z,9.27
2023-04-09T20:26:02.732Z,9.75
2023-04-09T20:28:29.890Z,9.07
2023-04-09T20:30:56.961Z,9.45
2023-04-09T20:33:24.315Z,10.00
2023-04-09T20:35:52.359Z,9.80
2023-04-09T20:38:20.647Z,8.80
2023-04-09T20:40:48.054Z,9.32
2023-04-09T20:43:15.413Z,9.88
2023-04-09T20:45:42.643Z,9.00
2023-04-09T20:48:10.074Z,9.20
2023-04-09T20:50:37.532Z,9.18
2023-04-09T20:53:07.007Z,9.50
2023-04-09T20:55:35.141Z,9.43
2023-04-09T20:58:02.946Z,8.93
2023-04-09T21:00:29.976Z,8.35
2023-04-09T21:02:57.348Z,8.93
2023-04-09T21:05:24.782Z,8.32
2023-04-09T21:07:55.745Z,8.43
2023-04-09T21:10:22.829Z,8.55
2023-04-09T21:12:49.943Z,7.97
2023-04-09T21:15:17.647Z,7.80
2023-04-09T21:17:44.848Z,8.15
2023-04-09T21:20:19.377Z,8.13
2023-04-09T21:22:46.527Z,8.10
2023-04-09T21:25:15.419Z,8.10
2023-04-09T21:27:43.064Z,7.68
2023-04-09T21:30:11.106Z,7.55
2023-04-09T21:32:38.527Z,8.30
2023-04-09T21:35:06.432Z,7.13
2023-04-09T21:37:33.772Z,7.70
2023-04-09T21:40:00.916Z,7.43
2023-04-09T21:42:31.382Z,7.72
2023-04-09T21:44:58.585Z,7.93
2023-04-09T21:47:27.509Z,8.15
2023-04-09T21:49:56.224Z,7.28
2023-04-09T21:52:24.559Z,7.63
2023-04-09T21:54:51.683Z,8.20
2023-04-09T21:57:19.315Z,7.55
2023-04-09T21:59:46.531Z,7.27
2023-04-09T22:02:13.790Z,8.02
2023-04-09T22:04:42.923Z,7.28
2023-04-09T22:07:11.267Z,9.43
2023-04-09T22:09:38.789Z,7.38
2023-04-09T22:12:05.991Z,7.45
2023-04-09T22:14:33.394Z,7.03
2023-04-09T22:17:01.830Z,7.33
2023-04-09T22:19:31.478Z,7.73
2023-04-09T22:21:58.713Z,7.23
2023-04-09T22:24:30.258Z,7.68
2023-04-09T22:26:59.122Z,7.20
2023-04-09T22:29:27.262Z,7.13
2023-04-09T22:31:55.974Z,7.13
2023-04-09T22:34:23.003Z,6.93
2023-04-09T22:36:50.748Z,7.00
2023-04-09T22:39:17.919Z,6.77
2023-04-09T22:41:44.956Z,7.23
2023-04-09T22:44:12.256Z,6.90
2023-04-09T22:46:39.426Z,6.93
2023-04-09T22:49:06.644Z,6.40
2023-04-09T22:51:38.482Z,7.03
2023-04-09T22:54:06.909Z,6.93
2023-04-09T22:56:34.620Z,7.23
2023-04-09T22:59:01.950Z,7.38
2023-04-09T23:01:29.486Z,7.33
2023-04-09T23:03:56.533Z,6.53
2023-04-09T23:06:25.787Z,7.65
2023-04-09T23:08:52.988Z,7.35
2023-04-09T23:11:21.160Z,7.23
2023-04-09T23:13:48.207Z,7.13
2023-04-09T23:16:15.659Z,6.97
2023-04-09T23:18:44.404Z,7.18
2023-04-09T23:21:11.733Z,6.40
2023-04-09T23:23:39.478Z,7.17
2023-04-09T23:26:07.249Z,6.53
2023-04-09T23:28:34.394Z,6.90
2023-04-09T23:31:01.632Z,6.97
2023-04-09T23:33:28.847Z,7.73
2023-04-09T23:35:55.917Z,7.47
2023-04-09T23:38:23.548Z,6.53
2023-04-09T23:40:50.516Z,6.20
2023-04-09T23:43:18.438Z,6.80
2023-04-09T23:45:45.698Z,6.93
2023-04-09T23:48:12.933Z,6.47
2023-04-09T23:50:43.061Z,6.63
2023-04-09T23:53:11.163Z,6.47
2023-04-09T23:55:38.516Z,5.83
2023-04-09T23:58:05.682Z,5.97
